MacFarlan, West Virginia
Current Conditions -  °F | °C
As of 6:53 PM on Friday 28 Nov 2014 (Local Time) from KPKB Reporting Station
Broken Clouds Broken Clouds  
Wind Chill: 25°   Ceiling: 12000
Heat Index: 30°   Visibility: 10mi
Dew Point: 17°   Wind: 5mph
Humidity: 59%   Direction: 150°SSE
Pressure: 30.27"   Gusts: NA
Location:  39.08°N, 81.2°W
Report Text: KPKB 282353Z 15004KT 10SM BKN120 M01/M08 A3027 RMK AO2 SLP260 T10111083 10000 21011 58007
Loading
Personal Weather Stations






























Interactive Weather Map New forecast layout! Learn more

10-Day Weather Forecast

Advertisements
Track Severe Weather on mobile